createdAt,value
2019-03-10T00:00:03.112Z,72.30
2019-03-10T00:02:30.009Z,72.40
2019-03-10T00:04:56.727Z,72.00
2019-03-10T00:07:23.454Z,72.40
2019-03-10T00:09:50.244Z,72.40
2019-03-10T00:12:16.968Z,72.00
2019-03-10T00:14:43.928Z,72.50
2019-03-10T00:17:10.625Z,73.00
2019-03-10T00:19:37.337Z,72.30
2019-03-10T00:22:05.257Z,71.90
2019-03-10T00:24:31.958Z,72.80
2019-03-10T00:26:58.686Z,73.00
2019-03-10T00:29:25.538Z,73.30
2019-03-10T00:31:52.262Z,72.80
2019-03-10T00:34:18.979Z,72.80
2019-03-10T00:36:45.800Z,72.80
2019-03-10T00:39:32.714Z,72.80
2019-03-10T00:42:27.461Z,72.20
2019-03-10T00:45:32.655Z,72.30
2019-03-10T00:48:24.800Z,72.50
2019-03-10T00:51:24.606Z,73.20
2019-03-10T00:53:51.468Z,73.70
2019-03-10T00:56:18.227Z,73.10
2019-03-10T00:58:44.966Z,73.00
2019-03-10T01:01:11.844Z,72.70
2019-03-10T01:03:38.589Z,72.60
2019-03-10T01:06:05.292Z,72.60
2019-03-10T01:08:32.416Z,71.90
2019-03-10T01:10:59.158Z,72.10
2019-03-10T01:13:26.009Z,72.30
2019-03-10T01:15:54.117Z,72.10
2019-03-10T01:18:22.739Z,72.50
2019-03-10T01:20:51.681Z,72.90
2019-03-10T01:23:18.569Z,73.10
2019-03-10T01:25:45.300Z,71.80
2019-03-10T01:28:12.017Z,72.40
2019-03-10T01:31:02.540Z,73.10
2019-03-10T01:34:06.589Z,73.30
2019-03-10T01:36:36.348Z,73.30
2019-03-10T01:39:04.283Z,73.20
2019-03-10T01:41:31.001Z,73.40
2019-03-10T01:43:57.798Z,73.90
2019-03-10T01:46:24.540Z,74.00
2019-03-10T01:48:51.296Z,73.90
2019-03-10T01:51:18.110Z,74.30
2019-03-10T01:53:44.816Z,74.00
2019-03-10T01:56:11.579Z,73.70
2019-03-10T01:58:38.346Z,73.30
2019-03-10T02:01:05.090Z,73.40
2019-03-10T02:03:32.016Z,73.50
2019-03-10T02:05:58.695Z,73.70
2019-03-10T02:08:25.457Z,73.80
2019-03-10T02:10:52.240Z,73.70
2019-03-10T02:13:18.999Z,73.70
2019-03-10T02:15:45.790Z,74.30
2019-03-10T02:18:12.561Z,74.10
2019-03-10T02:20:39.310Z,74.10
2019-03-10T02:23:06.162Z,74.00
2019-03-10T02:25:32.913Z,74.00
2019-03-10T02:27:59.623Z,74.10
2019-03-10T02:30:26.520Z,74.10
2019-03-10T02:32:53.281Z,73.80
2019-03-10T02:35:20.155Z,73.50
2019-03-10T02:37:46.882Z,73.60
2019-03-10T02:40:13.678Z,73.40
2019-03-10T02:42:40.497Z,73.10
2019-03-10T02:45:09.201Z,73.40
2019-03-10T02:47:35.942Z,73.70
2019-03-10T02:50:05.256Z,73.90
2019-03-10T02:52:31.981Z,73.70
2019-03-10T02:54:58.701Z,74.10
2019-03-10T02:57:25.469Z,74.00
2019-03-10T02:59:52.185Z,73.70
2019-03-10T03:02:18.966Z,73.70
2019-03-10T03:04:45.831Z,74.00
2019-03-10T03:07:12.569Z,74.30
2019-03-10T03:09:39.320Z,74.00
2019-03-10T03:12:06.095Z,73.30
2019-03-10T03:14:32.804Z,73.20
2019-03-10T03:16:59.849Z,73.20
2019-03-10T03:19:26.729Z,73.50
2019-03-10T03:21:53.443Z,73.30
2019-03-10T03:24:20.192Z,73.50
2019-03-10T03:26:46.986Z,73.50
2019-03-10T03:29:13.729Z,73.10
2019-03-10T03:31:40.531Z,73.20
2019-03-10T03:34:07.308Z,73.80
2019-03-10T03:36:35.165Z,73.80
2019-03-10T03:39:18.815Z,73.80
2019-03-10T03:41:45.557Z,73.50
2019-03-10T03:44:12.424Z,73.70
2019-03-10T03:46:39.131Z,73.20
2019-03-10T03:49:05.855Z,73.30
2019-03-10T03:51:32.642Z,73.40
2019-03-10T03:53:59.394Z,73.20
2019-03-10T03:56:26.178Z,74.00
2019-03-10T03:58:52.917Z,73.30
2019-03-10T04:01:19.698Z,73.10
2019-03-10T04:03:46.390Z,73.00
2019-03-10T04:06:13.271Z,73.60
2019-03-10T04:08:39.987Z,73.00
2019-03-10T04:11:06.721Z,73.40
2019-03-10T04:13:33.607Z,73.20
2019-03-10T04:16:00.332Z,72.90
2019-03-10T04:18:27.109Z,72.30
2019-03-10T04:20:53.899Z,73.00
2019-03-10T04:23:20.605Z,72.30
2019-03-10T04:25:47.347Z,71.80
2019-03-10T04:28:14.109Z,72.10
2019-03-10T04:30:40.843Z,72.60
2019-03-10T04:33:07.621Z,72.50
2019-03-10T04:35:34.469Z,73.10
2019-03-10T04:38:01.200Z,72.70
2019-03-10T04:40:28.092Z,72.70
2019-03-10T04:42:54.821Z,72.80
2019-03-10T04:45:21.531Z,72.20
2019-03-10T04:47:48.355Z,72.40
2019-03-10T04:50:16.417Z,73.50
2019-03-10T04:52:43.403Z,72.80
2019-03-10T04:55:10.205Z,73.00
2019-03-10T04:57:36.933Z,73.30
2019-03-10T05:00:06.358Z,73.00
2019-03-10T05:02:33.553Z,73.10
2019-03-10T05:05:00.474Z,72.80
2019-03-10T05:07:27.610Z,72.90
2019-03-10T05:09:54.337Z,72.90
2019-03-10T05:12:21.080Z,73.00
2019-03-10T05:14:47.987Z,72.90
2019-03-10T05:17:14.741Z,72.90
2019-03-10T05:19:41.614Z,71.90
2019-03-10T05:22:08.499Z,72.60
2019-03-10T05:24:35.285Z,73.00
2019-03-10T05:27:04.855Z,72.70
2019-03-10T05:29:31.710Z,72.60
2019-03-10T05:31:58.440Z,72.70
2019-03-10T05:34:25.177Z,73.10
2019-03-10T05:36:51.996Z,73.40
2019-03-10T05:39:18.718Z,72.60
2019-03-10T05:41:45.430Z,72.60
2019-03-10T05:44:12.227Z,73.10
2019-03-10T05:46:38.947Z,73.10
2019-03-10T05:49:05.802Z,73.50
2019-03-10T05:51:32.534Z,72.90
2019-03-10T05:53:59.273Z,72.90
2019-03-10T05:56:26.069Z,72.90
2019-03-10T05:58:52.791Z,72.70
2019-03-10T06:01:19.728Z,72.30
2019-03-10T06:03:46.514Z,71.70
2019-03-10T06:06:13.239Z,72.10
2019-03-10T06:08:40.105Z,72.30
2019-03-10T06:11:06.851Z,72.50
2019-03-10T06:13:33.579Z,72.50
2019-03-10T06:16:00.377Z,72.40
2019-03-10T06:18:27.123Z,72.30
2019-03-10T06:20:57.260Z,72.40
2019-03-10T06:23:24.122Z,72.10
2019-03-10T06:25:50.879Z,72.30
2019-03-10T06:28:17.624Z,72.30
2019-03-10T06:30:44.407Z,72.40
2019-03-10T06:33:11.159Z,72.50
2019-03-10T06:35:38.019Z,72.60
2019-03-10T06:38:04.801Z,72.90
2019-03-10T06:40:32.560Z,72.70
2019-03-10T06:42:59.573Z,72.30
2019-03-10T06:45:26.454Z,72.90
2019-03-10T06:47:53.181Z,73.20
2019-03-10T06:50:19.981Z,73.60
2019-03-10T06:52:46.700Z,73.70
2019-03-10T06:55:13.417Z,73.60
2019-03-10T06:57:40.209Z,73.50
2019-03-10T07:00:11.257Z,72.80
2019-03-10T07:02:39.161Z,72.80
2019-03-10T07:05:09.017Z,72.60
2019-03-10T07:07:35.779Z,72.90
2019-03-10T07:10:09.770Z,73.40
2019-03-10T07:12:36.492Z,72.90
2019-03-10T07:15:06.261Z,72.80
2019-03-10T07:17:33.157Z,72.90
2019-03-10T07:19:59.877Z,73.50
2019-03-10T07:22:26.695Z,73.20
2019-03-10T07:24:53.509Z,73.20
2019-03-10T07:27:20.266Z,73.30
2019-03-10T07:29:46.993Z,72.90
2019-03-10T07:32:13.794Z,73.30
2019-03-10T07:34:40.564Z,73.20
2019-03-10T07:37:07.267Z,73.10
2019-03-10T07:39:34.041Z,72.90
2019-03-10T07:42:00.776Z,72.50
2019-03-10T07:44:27.632Z,73.10
2019-03-10T07:46:54.340Z,73.80
2019-03-10T07:49:21.103Z,74.50
2019-03-10T07:51:48.013Z,74.20
2019-03-10T07:54:14.732Z,74.30
2019-03-10T07:56:41.462Z,73.30
2019-03-10T07:59:08.290Z,72.70
2019-03-10T08:01:35.055Z,72.00
2019-03-10T08:04:01.804Z,71.60
2019-03-10T08:06:28.595Z,70.70
2019-03-10T08:08:55.332Z,69.90
2019-03-10T08:11:22.085Z,69.60
2019-03-10T08:13:48.812Z,69.50
2019-03-10T08:16:15.629Z,69.10
2019-03-10T08:18:42.375Z,68.90
2019-03-10T08:21:09.190Z,68.50
2019-03-10T08:23:35.947Z,68.40
2019-03-10T08:26:02.866Z,68.10
2019-03-10T08:28:29.594Z,67.40
2019-03-10T08:30:56.306Z,67.00
2019-03-10T08:33:23.119Z,66.30
2019-03-10T08:35:49.851Z,66.30
2019-03-10T08:38:16.582Z,66.30
2019-03-10T08:40:43.408Z,65.80
2019-03-10T08:43:10.125Z,65.30
2019-03-10T08:45:36.870Z,65.40
2019-03-10T08:48:03.751Z,64.90
2019-03-10T08:50:30.513Z,65.30
2019-03-10T08:52:57.321Z,65.00
2019-03-10T08:55:24.177Z,64.60
2019-03-10T08:57:50.901Z,65.00
2019-03-10T09:00:17.719Z,65.40
2019-03-10T09:02:44.718Z,64.70
2019-03-10T09:05:11.565Z,64.50
2019-03-10T09:07:38.315Z,64.30
2019-03-10T09:10:08.708Z,64.50
2019-03-10T09:12:35.957Z,64.60
2019-03-10T09:15:05.185Z,64.20
2019-03-10T09:17:31.994Z,64.50
2019-03-10T09:19:58.735Z,63.90
2019-03-10T09:22:25.475Z,63.80
2019-03-10T09:24:52.394Z,64.20
2019-03-10T09:27:19.150Z,64.30
2019-03-10T09:29:45.906Z,64.50
2019-03-10T09:32:12.792Z,64.70
2019-03-10T09:34:39.580Z,64.20
2019-03-10T09:37:06.328Z,63.70
2019-03-10T09:39:33.100Z,64.00
2019-03-10T09:42:08.623Z,64.00
2019-03-10T09:44:35.574Z,63.80
2019-03-10T09:47:02.320Z,63.60
2019-03-10T09:49:29.211Z,63.60
2019-03-10T09:51:56.405Z,63.80
2019-03-10T09:54:23.487Z,63.90
2019-03-10T09:56:50.242Z,63.50
2019-03-10T09:59:17.004Z,63.20
2019-03-10T10:01:43.716Z,63.80
2019-03-10T10:04:10.618Z,63.40
2019-03-10T10:06:37.323Z,63.50
2019-03-10T10:09:05.946Z,63.10
2019-03-10T10:11:32.729Z,62.90
2019-03-10T10:13:59.471Z,62.60
2019-03-10T10:16:26.281Z,62.30
2019-03-10T10:18:53.039Z,61.60
2019-03-10T10:21:19.799Z,61.50
2019-03-10T10:23:46.658Z,61.60
2019-03-10T10:26:13.449Z,62.00
2019-03-10T10:28:40.326Z,62.20
2019-03-10T10:31:07.091Z,62.70
2019-03-10T10:33:33.836Z,62.70
2019-03-10T10:36:00.605Z,62.40
2019-03-10T10:38:27.404Z,62.00
2019-03-10T10:40:54.299Z,62.30
2019-03-10T10:43:21.031Z,62.30
2019-03-10T10:45:47.749Z,62.60
2019-03-10T10:48:14.568Z,62.70
2019-03-10T10:50:41.465Z,62.50
2019-03-10T10:53:08.277Z,62.50
2019-03-10T10:55:35.155Z,62.10
2019-03-10T10:58:02.013Z,62.10
2019-03-10T11:00:28.775Z,61.70
2019-03-10T11:02:55.502Z,62.10
2019-03-10T11:05:22.318Z,62.20
2019-03-10T11:07:49.068Z,62.40
2019-03-10T11:10:15.800Z,62.30
2019-03-10T11:12:42.596Z,61.80
2019-03-10T11:15:09.450Z,60.80
2019-03-10T11:17:36.189Z,59.90
2019-03-10T11:20:07.148Z,58.50
2019-03-10T11:22:33.914Z,58.00
2019-03-10T11:25:00.813Z,58.30
2019-03-10T11:27:27.695Z,58.10
2019-03-10T11:29:54.453Z,57.80
2019-03-10T11:32:21.172Z,57.30
2019-03-10T11:34:48.000Z,57.20
2019-03-10T11:37:14.734Z,56.50
2019-03-10T11:39:41.478Z,56.50
2019-03-10T11:42:08.310Z,55.80
2019-03-10T11:44:35.078Z,55.60
2019-03-10T11:47:01.818Z,55.10
2019-03-10T11:49:28.660Z,55.20
2019-03-10T11:51:55.400Z,55.90
2019-03-10T11:54:22.143Z,57.10
2019-03-10T11:56:49.025Z,57.10
2019-03-10T11:59:15.785Z,57.10
2019-03-10T12:01:42.517Z,57.10
2019-03-10T12:04:10.484Z,57.00
2019-03-10T12:06:37.362Z,56.20
2019-03-10T12:09:05.893Z,55.70
2019-03-10T12:11:32.647Z,54.90
2019-03-10T12:13:59.382Z,54.50
2019-03-10T12:16:26.171Z,54.70
2019-03-10T12:18:52.899Z,54.10
2019-03-10T12:21:19.653Z,53.80
2019-03-10T12:23:46.529Z,53.10
2019-03-10T12:26:13.434Z,52.90
2019-03-10T12:28:41.625Z,52.90
2019-03-10T12:31:08.661Z,53.50
2019-03-10T12:33:35.370Z,53.50
2019-03-10T12:36:02.127Z,53.80
2019-03-10T12:38:29.092Z,53.80
2019-03-10T12:40:55.882Z,54.20
2019-03-10T12:43:22.633Z,54.40
2019-03-10T12:45:49.446Z,54.20
2019-03-10T12:48:16.204Z,53.70
2019-03-10T12:50:42.933Z,53.60
2019-03-10T12:53:09.741Z,53.30
2019-03-10T12:55:36.522Z,53.20
2019-03-10T12:58:03.270Z,52.70
2019-03-10T13:00:30.177Z,52.30
2019-03-10T13:02:56.908Z,51.90
2019-03-10T13:05:23.832Z,51.50
2019-03-10T13:07:50.589Z,50.40
2019-03-10T13:10:17.317Z,50.00
2019-03-10T13:12:44.184Z,50.50
2019-03-10T13:15:11.744Z,49.10
2019-03-10T13:17:38.498Z,49.00
2019-03-10T13:20:09.309Z,48.30
2019-03-10T13:22:36.056Z,47.70
2019-03-10T13:25:09.068Z,48.20
2019-03-10T13:27:35.922Z,47.60
2019-03-10T13:30:12.277Z,47.70
2019-03-10T13:32:39.027Z,48.30
2019-03-10T13:35:05.870Z,48.30
2019-03-10T13:37:32.870Z,48.60
2019-03-10T13:39:59.594Z,48.60
2019-03-10T13:42:26.336Z,48.60
2019-03-10T13:44:53.077Z,49.20
2019-03-10T13:47:19.867Z,48.90
2019-03-10T13:49:46.776Z,48.70
2019-03-10T13:52:13.507Z,48.90
2019-03-10T13:54:40.262Z,49.00
2019-03-10T13:57:07.043Z,49.30
2019-03-10T13:59:33.800Z,49.60
2019-03-10T14:02:00.703Z,50.20
2019-03-10T14:04:27.456Z,50.60
2019-03-10T14:06:54.218Z,52.00
2019-03-10T14:09:21.101Z,52.60
2019-03-10T14:11:48.045Z,53.40
2019-03-10T14:14:14.793Z,53.70
2019-03-10T14:16:41.863Z,53.80
2019-03-10T14:19:08.763Z,53.60
2019-03-10T14:21:35.788Z,54.00
2019-03-10T14:24:03.051Z,54.10
2019-03-10T14:26:29.801Z,54.60
2019-03-10T14:28:56.866Z,54.80
2019-03-10T14:31:23.703Z,54.90
2019-03-10T14:33:50.857Z,54.70
2019-03-10T14:36:17.756Z,54.70
2019-03-10T14:38:44.650Z,54.70
2019-03-10T14:41:11.465Z,55.10
2019-03-10T14:43:38.380Z,55.40
2019-03-10T14:46:05.236Z,56.00
2019-03-10T14:48:32.245Z,56.60
2019-03-10T14:50:59.250Z,56.60
2019-03-10T14:53:26.043Z,56.50
2019-03-10T14:55:52.816Z,56.10
2019-03-10T14:58:19.724Z,55.80
2019-03-10T15:00:46.494Z,55.80
2019-03-10T15:03:13.248Z,55.00
2019-03-10T15:05:40.074Z,55.20
2019-03-10T15:08:06.916Z,55.00
2019-03-10T15:10:33.932Z,54.80
2019-03-10T15:13:00.812Z,55.10
2019-03-10T15:15:27.546Z,55.80
2019-03-10T15:17:54.317Z,56.50
2019-03-10T15:20:21.822Z,57.50
2019-03-10T15:22:48.734Z,57.50
2019-03-10T15:25:19.898Z,57.70
2019-03-10T15:27:46.769Z,58.20
2019-03-10T15:30:19.421Z,58.40
2019-03-10T15:32:46.279Z,59.00
2019-03-10T15:35:13.329Z,59.30
2019-03-10T15:37:40.081Z,59.40
2019-03-10T15:40:11.786Z,59.60
2019-03-10T15:42:38.536Z,59.90
2019-03-10T15:45:09.811Z,60.20
2019-03-10T15:47:36.687Z,60.20
2019-03-10T15:50:11.632Z,60.40
2019-03-10T15:52:38.374Z,60.80
2019-03-10T15:55:05.293Z,61.30
2019-03-10T15:57:32.034Z,62.00
2019-03-10T15:59:58.813Z,61.30
2019-03-10T16:02:25.650Z,61.80
2019-03-10T16:04:52.556Z,61.70
2019-03-10T16:07:20.438Z,61.80
2019-03-10T16:09:47.959Z,61.80
2019-03-10T16:12:15.064Z,61.90
2019-03-10T16:14:42.148Z,62.00
2019-03-10T16:17:09.230Z,62.50
2019-03-10T16:19:36.408Z,62.70
2019-03-10T16:22:03.823Z,63.00
2019-03-10T16:24:30.864Z,63.20
2019-03-10T16:26:58.007Z,63.50
2019-03-10T16:29:25.302Z,64.20
2019-03-10T16:31:52.553Z,63.90
2019-03-10T16:34:19.755Z,63.80
2019-03-10T16:36:47.022Z,63.60
2019-03-10T16:39:14.231Z,63.70
2019-03-10T16:41:41.280Z,63.70
2019-03-10T16:44:08.477Z,63.90
2019-03-10T16:46:35.660Z,63.90
2019-03-10T16:49:02.863Z,64.00
2019-03-10T16:51:29.882Z,64.60
2019-03-10T16:53:57.097Z,64.20
2019-03-10T16:56:24.316Z,64.20
2019-03-10T16:58:51.508Z,64.40
2019-03-10T17:01:18.703Z,65.30
2019-03-10T17:03:45.989Z,64.60
2019-03-10T17:06:13.179Z,64.80
2019-03-10T17:08:40.304Z,65.10
2019-03-10T17:11:07.564Z,65.40
2019-03-10T17:13:34.743Z,65.40
2019-03-10T17:16:01.902Z,65.40
2019-03-10T17:18:29.148Z,65.90
2019-03-10T17:20:56.284Z,65.60
2019-03-10T17:23:23.326Z,65.90
2019-03-10T17:25:50.414Z,66.20
2019-03-10T17:28:17.554Z,66.50
2019-03-10T17:30:44.823Z,66.90
2019-03-10T17:33:12.007Z,67.00
2019-03-10T17:35:39.441Z,66.90
2019-03-10T17:38:06.421Z,66.90
2019-03-10T17:40:33.578Z,67.20
2019-03-10T17:43:00.707Z,67.30
2019-03-10T17:45:27.977Z,67.50
2019-03-10T17:47:55.122Z,67.60
2019-03-10T17:50:22.571Z,68.00
2019-03-10T17:52:49.686Z,67.90
2019-03-10T17:55:22.017Z,68.20
2019-03-10T17:57:49.562Z,68.40
2019-03-10T18:00:18.182Z,68.40
2019-03-10T18:02:45.901Z,68.50
2019-03-10T18:05:12.863Z,68.80
2019-03-10T18:07:39.587Z,68.60
2019-03-10T18:10:16.463Z,68.50
2019-03-10T18:12:43.365Z,68.30
2019-03-10T18:15:13.246Z,68.40
2019-03-10T18:17:40.165Z,68.40
2019-03-10T18:20:17.524Z,68.80
2019-03-10T18:22:44.462Z,69.00
2019-03-10T18:25:12.159Z,69.00
2019-03-10T18:27:39.008Z,69.20
2019-03-10T18:30:14.266Z,69.30
2019-03-10T18:32:44.615Z,69.60
2019-03-10T18:35:11.455Z,69.70
2019-03-10T18:37:38.378Z,69.60
2019-03-10T18:40:23.085Z,69.70
2019-03-10T18:42:49.910Z,69.90
2019-03-10T18:45:18.487Z,69.80
2019-03-10T18:47:45.337Z,69.80
2019-03-10T18:50:15.540Z,69.70
2019-03-10T18:52:42.809Z,69.90
2019-03-10T18:55:12.809Z,70.00
2019-03-10T18:57:39.733Z,69.90
2019-03-10T19:00:26.894Z,70.00
2019-03-10T19:02:53.772Z,69.90
2019-03-10T19:05:20.951Z,69.80
2019-03-10T19:07:47.781Z,70.00
2019-03-10T19:10:14.535Z,70.00
2019-03-10T19:12:41.416Z,70.20
2019-03-10T19:15:15.616Z,70.30
2019-03-10T19:17:42.487Z,70.10
2019-03-10T19:20:12.441Z,70.10
2019-03-10T19:22:39.341Z,70.00
2019-03-10T19:25:12.179Z,69.80
2019-03-10T19:27:38.949Z,69.90
2019-03-10T19:30:23.524Z,70.00
2019-03-10T19:32:50.685Z,69.90
2019-03-10T19:35:17.671Z,70.00
2019-03-10T19:37:44.580Z,71.20
2019-03-10T19:40:19.669Z,70.30
2019-03-10T19:42:46.438Z,70.30
2019-03-10T19:45:21.111Z,70.30
2019-03-10T19:47:48.180Z,70.30
2019-03-10T19:50:26.874Z,70.10
2019-03-10T19:52:52.749Z,70.00
2019-03-10T19:55:21.744Z,70.10
2019-03-10T19:57:48.539Z,70.10
2019-03-10T20:00:20.693Z,69.70
2019-03-10T20:02:47.549Z,70.20
2019-03-10T20:05:14.546Z,69.50
2019-03-10T20:07:42.037Z,69.20
2019-03-10T20:10:16.831Z,69.20
2019-03-10T20:12:43.520Z,69.10
2019-03-10T20:15:14.247Z,69.60
2019-03-10T20:17:41.031Z,70.10
2019-03-10T20:20:14.891Z,70.10
2019-03-10T20:22:41.812Z,69.50
2019-03-10T20:25:11.569Z,69.50
2019-03-10T20:27:38.394Z,70.10
2019-03-10T20:30:16.887Z,69.90
2019-03-10T20:32:43.654Z,70.00
2019-03-10T20:35:10.556Z,70.20
2019-03-10T20:37:37.332Z,70.40
2019-03-10T20:40:16.809Z,69.60
2019-03-10T20:42:43.645Z,70.00
2019-03-10T20:45:10.688Z,70.50
2019-03-10T20:47:37.392Z,70.50
2019-03-10T20:50:14.795Z,70.30
2019-03-10T20:52:41.499Z,70.20
2019-03-10T20:55:10.306Z,70.10
2019-03-10T20:57:37.083Z,70.10
2019-03-10T21:00:17.389Z,70.20
2019-03-10T21:02:44.337Z,70.30
2019-03-10T21:05:11.293Z,70.30
2019-03-10T21:07:38.078Z,70.10
2019-03-10T21:10:13.145Z,69.70
2019-03-10T21:12:42.739Z,70.00
2019-03-10T21:15:17.569Z,69.90
2019-03-10T21:17:44.526Z,70.10
2019-03-10T21:20:15.167Z,70.00
2019-03-10T21:22:41.999Z,70.00
2019-03-10T21:25:15.753Z,70.30
2019-03-10T21:27:42.902Z,70.40
2019-03-10T21:30:14.006Z,70.20
2019-03-10T21:32:40.757Z,70.50
2019-03-10T21:35:17.173Z,70.80
2019-03-10T21:37:36.252Z,70.60
2019-03-10T21:40:11.553Z,70.60
2019-03-10T21:42:38.256Z,70.30
2019-03-10T21:45:07.964Z,70.70
2019-03-10T21:47:34.735Z,70.80
2019-03-10T21:50:01.759Z,70.30
2019-03-10T21:52:28.484Z,70.40
2019-03-10T21:54:55.376Z,70.60
2019-03-10T21:57:22.113Z,70.80
2019-03-10T21:59:48.829Z,70.80
2019-03-10T22:02:15.584Z,70.90
2019-03-10T22:04:42.383Z,71.30
2019-03-10T22:07:09.225Z,71.30
2019-03-10T22:09:35.937Z,71.10
2019-03-10T22:12:02.651Z,71.10
2019-03-10T22:14:29.526Z,71.20
2019-03-10T22:16:56.290Z,71.60
2019-03-10T22:19:23.197Z,71.40
2019-03-10T22:21:50.021Z,71.30
2019-03-10T22:24:16.747Z,71.20
2019-03-10T22:26:43.473Z,71.00
2019-03-10T22:29:10.264Z,70.50
2019-03-10T22:31:36.981Z,71.30
2019-03-10T22:34:03.713Z,71.50
2019-03-10T22:36:30.631Z,71.30
2019-03-10T22:38:57.392Z,71.20
2019-03-10T22:41:24.093Z,71.10
2019-03-10T22:43:50.955Z,71.70
2019-03-10T22:46:17.701Z,71.80
2019-03-10T22:48:44.421Z,71.00
2019-03-10T22:51:11.162Z,71.00
2019-03-10T22:53:37.902Z,72.10
2019-03-10T22:56:04.801Z,71.60
2019-03-10T22:58:31.511Z,71.60
2019-03-10T23:00:58.249Z,71.30
2019-03-10T23:03:25.106Z,71.60
2019-03-10T23:05:51.861Z,71.70
2019-03-10T23:08:18.578Z,71.70
2019-03-10T23:10:45.405Z,72.00
2019-03-10T23:13:12.147Z,72.50
2019-03-10T23:15:38.889Z,71.80
2019-03-10T23:18:05.679Z,71.50
2019-03-10T23:20:32.420Z,71.70
2019-03-10T23:22:59.142Z,71.80
2019-03-10T23:25:25.939Z,71.80
2019-03-10T23:27:52.741Z,72.10
2019-03-10T23:30:19.548Z,71.80
2019-03-10T23:32:46.291Z,71.80
2019-03-10T23:35:13.107Z,71.90
2019-03-10T23:37:40.032Z,71.80
2019-03-10T23:40:13.602Z,71.80
2019-03-10T23:42:40.436Z,72.00
2019-03-10T23:45:14.158Z,72.10
2019-03-10T23:47:40.899Z,71.70
2019-03-10T23:50:16.245Z,71.60
2019-03-10T23:52:42.985Z,71.10
2019-03-10T23:55:11.651Z,71.60
2019-03-10T23:57:38.543Z,71.80
